createdAt,value
2023-02-18T00:00:31.906Z,99246.22
2023-02-18T00:01:34.534Z,99235.42
2023-02-18T00:02:36.944Z,99241.41
2023-02-18T00:03:40.439Z,99236.25
2023-02-18T00:04:43.001Z,99245.83
2023-02-18T00:05:45.257Z,99241.60
2023-02-18T00:06:48.188Z,99240.13
2023-02-18T00:07:50.537Z,99237.52
2023-02-18T00:08:53.978Z,99232.75
2023-02-18T00:09:56.309Z,99229.49
2023-02-18T00:10:58.785Z,99223.70
2023-02-18T00:12:01.637Z,99211.08
2023-02-18T00:13:03.989Z,99215.47
2023-02-18T00:14:10.244Z,99212.13
2023-02-18T00:15:13.838Z,99207.02
2023-02-18T00:16:17.478Z,99196.64
2023-02-18T00:17:19.821Z,99199.20
2023-02-18T00:18:24.983Z,99194.08
2023-02-18T00:19:28.541Z,99194.88
2023-02-18T00:20:33.046Z,99191.45
2023-02-18T00:21:36.624Z,99206.85
2023-02-18T00:22:39.060Z,99181.40
2023-02-18T00:23:44.010Z,99188.92
2023-02-18T00:24:46.548Z,99182.17
2023-02-18T00:25:48.892Z,99176.21
2023-02-18T00:26:52.333Z,99168.46
2023-02-18T00:27:55.112Z,99163.37
2023-02-18T00:28:57.466Z,99160.02
2023-02-18T00:29:59.942Z,99159.14
2023-02-18T00:31:11.303Z,99157.41
2023-02-18T00:32:13.631Z,99149.77
2023-02-18T00:33:15.924Z,99147.23
2023-02-18T00:34:18.388Z,99145.54
2023-02-18T00:35:20.735Z,99142.02
2023-02-18T00:36:25.245Z,99136.89
2023-02-18T00:37:28.220Z,99133.43
2023-02-18T00:38:31.353Z,99126.67
2023-02-18T00:39:34.443Z,99127.51
2023-02-18T00:40:38.259Z,99114.73
2023-02-18T00:41:43.940Z,99107.88
2023-02-18T00:42:46.379Z,99111.20
2023-02-18T00:43:49.898Z,99100.88
2023-02-18T00:44:54.097Z,99112.80
2023-02-18T00:45:56.883Z,99105.94
2023-02-18T00:46:59.130Z,99103.30
2023-02-18T00:48:01.550Z,99093.09
2023-02-18T00:49:05.691Z,99088.86
2023-02-18T00:50:09.752Z,99084.72
2023-02-18T00:51:12.848Z,99082.98
2023-02-18T00:52:15.397Z,99082.05
2023-02-18T00:53:17.857Z,99076.92
2023-02-18T00:54:21.952Z,99077.86
2023-02-18T00:55:25.174Z,99075.23
2023-02-18T00:56:28.059Z,99072.73
2023-02-18T00:57:30.546Z,99060.72
2023-02-18T00:58:34.762Z,99068.37
2023-02-18T00:59:39.076Z,99061.59
2023-02-18T01:00:41.969Z,99053.15
2023-02-18T01:01:44.975Z,99047.87
2023-02-18T01:02:48.926Z,99037.47
2023-02-18T01:03:52.191Z,99037.39
2023-02-18T01:04:54.738Z,99035.66
2023-02-18T01:05:57.279Z,99023.71
2023-02-18T01:07:01.191Z,99031.52
2023-02-18T01:08:05.724Z,99028.20
2023-02-18T01:09:08.460Z,99017.95
2023-02-18T01:10:12.431Z,99017.13
2023-02-18T01:11:14.870Z,99013.70
2023-02-18T01:12:17.667Z,99013.70
2023-02-18T01:13:20.649Z,99011.96
2023-02-18T01:14:23.093Z,99004.27
2023-02-18T01:15:25.804Z,99003.37
2023-02-18T01:16:28.635Z,99001.64
2023-02-18T01:17:31.183Z,98988.00
2023-02-18T01:18:33.684Z,98994.70
2023-02-18T01:19:36.012Z,98985.36
2023-02-18T01:20:40.624Z,98985.48
2023-02-18T01:21:43.289Z,98984.64
2023-02-18T01:22:46.156Z,98983.73
2023-02-18T01:23:48.549Z,98981.88
2023-02-18T01:24:51.775Z,98968.28
2023-02-18T01:25:55.533Z,98961.47
2023-02-18T01:26:58.007Z,98958.90
2023-02-18T01:28:00.436Z,98961.47
2023-02-18T01:29:04.574Z,98956.30
2023-02-18T01:30:09.792Z,98956.34
2023-02-18T01:31:14.424Z,98944.44
2023-02-18T01:32:17.431Z,98944.44
2023-02-18T01:33:20.911Z,98937.62
2023-02-18T01:34:23.263Z,98932.53
2023-02-18T01:35:26.885Z,98923.16
2023-02-18T01:36:31.124Z,98918.20
2023-02-18T01:37:34.301Z,98918.08
2023-02-18T01:38:37.723Z,98924.03
2023-02-18T01:39:40.380Z,98917.95
2023-02-18T01:40:50.818Z,98912.83
2023-02-18T01:41:53.291Z,98899.28
2023-02-18T01:42:56.320Z,98899.28
2023-02-18T01:44:13.506Z,98901.80
2023-02-18T01:45:37.696Z,98892.41
2023-02-18T01:46:42.469Z,98892.33
2023-02-18T01:47:44.841Z,98882.86
2023-02-18T01:49:01.154Z,98882.95
2023-02-18T01:50:04.031Z,98875.34
2023-02-18T01:51:15.814Z,98855.67
2023-02-18T01:52:21.677Z,98855.67
2023-02-18T01:53:27.644Z,98873.61
2023-02-18T01:54:33.682Z,98868.48
2023-02-18T01:55:39.116Z,98863.27
2023-02-18T01:56:57.390Z,98858.92
2023-02-18T01:58:00.204Z,98861.53
2023-02-18T01:59:06.003Z,98853.02
2023-02-18T02:00:22.480Z,98852.97
2023-02-18T02:01:27.353Z,98843.55
2023-02-18T02:02:32.155Z,98841.08
2023-02-18T02:03:34.467Z,98832.61
2023-02-18T02:04:37.755Z,98834.22
2023-02-18T02:05:40.232Z,98832.47
2023-02-18T02:06:42.839Z,98828.18
2023-02-18T02:07:47.146Z,98822.22
2023-02-18T02:08:53.790Z,98821.27
2023-02-18T02:09:59.049Z,98821.45
2023-02-18T02:11:25.420Z,98817.16
2023-02-18T02:12:49.147Z,98811.98
2023-02-18T02:14:10.232Z,98810.20
2023-02-18T02:15:34.361Z,98808.51
2023-02-18T02:16:46.493Z,98803.52
2023-02-18T02:17:55.634Z,98804.53
2023-02-18T02:19:01.728Z,98802.06
2023-02-18T02:20:08.559Z,98801.87
2023-02-18T02:21:34.092Z,98795.97
2023-02-18T02:23:02.526Z,98790.06
2023-02-18T02:24:17.724Z,98792.62
2023-02-18T02:25:23.710Z,98786.55
2023-02-18T02:26:35.902Z,98782.25
2023-02-18T02:28:03.344Z,98780.55
2023-02-18T02:29:29.313Z,98773.55
2023-02-18T02:31:08.095Z,98776.30
2023-02-18T02:32:44.533Z,98769.48
2023-02-18T02:33:57.177Z,98767.06
2023-02-18T02:35:27.760Z,98759.23
2023-02-18T02:36:39.952Z,98760.16
2023-02-18T02:37:52.420Z,98758.41
2023-02-18T02:40:35.721Z,98752.14
2023-02-18T02:42:01.983Z,98743.05
2023-02-18T02:43:43.799Z,98731.88
2023-02-18T02:44:50.720Z,98733.56
2023-02-18T02:46:05.771Z,98716.70
2023-02-18T02:47:11.897Z,98713.27
2023-02-18T02:48:19.282Z,98723.46
2023-02-18T02:49:43.041Z,98717.38
2023-02-18T02:50:49.007Z,98712.21
2023-02-18T02:52:00.630Z,98711.38
2023-02-18T02:53:08.400Z,98699.39
2023-02-18T02:54:20.309Z,98709.75
2023-02-18T02:55:22.942Z,98702.00
2023-02-18T02:56:26.268Z,98705.38
2023-02-18T02:57:33.384Z,98700.27
2023-02-18T02:58:40.348Z,98701.91
2023-02-18T02:59:48.213Z,98695.19
2023-02-18T03:01:00.483Z,98703.75
2023-02-18T03:02:11.253Z,98695.92
2023-02-18T03:03:34.923Z,98696.06
2023-02-18T03:04:54.471Z,98696.06
2023-02-18T03:06:20.880Z,98683.26
2023-02-18T03:07:30.961Z,98689.14
2023-02-18T03:08:42.950Z,98686.59
2023-02-18T03:10:21.004Z,98684.90
2023-02-18T03:11:23.553Z,98687.51
2023-02-18T03:12:29.444Z,98678.03
2023-02-18T03:13:51.287Z,98672.08
2023-02-18T03:16:37.612Z,98661.27
2023-02-18T03:17:49.967Z,98659.89
2023-02-18T03:18:59.013Z,98657.42
2023-02-18T03:20:10.993Z,98660.05
2023-02-18T03:21:22.804Z,98654.05
2023-02-18T03:22:30.586Z,98657.38
2023-02-18T03:23:37.215Z,98643.58
2023-02-18T03:24:46.110Z,98644.51
2023-02-18T03:25:51.132Z,98643.76
2023-02-18T03:27:01.626Z,98641.17
2023-02-18T03:28:13.444Z,98637.64
2023-02-18T03:29:18.738Z,98631.64
2023-02-18T03:30:26.242Z,98636.82
2023-02-18T03:31:33.350Z,98637.70
2023-02-18T03:32:36.948Z,98628.25
2023-02-18T03:33:42.767Z,98629.78
2023-02-18T03:34:49.628Z,98633.94
2023-02-18T03:35:54.347Z,98628.00
2023-02-18T03:37:00.022Z,98628.77
2023-02-18T03:38:05.970Z,98624.66
2023-02-18T03:39:14.963Z,98622.11
2023-02-18T03:40:19.744Z,98618.67
2023-02-18T03:41:22.621Z,98622.11
2023-02-18T03:42:27.654Z,98616.21
2023-02-18T03:43:30.194Z,98619.48
2023-02-18T03:44:32.429Z,98608.97
2023-02-18T03:45:34.884Z,98612.46
2023-02-18T03:46:39.664Z,98609.95
2023-02-18T03:47:42.017Z,98609.95
2023-02-18T03:48:44.537Z,98609.95
2023-02-18T03:49:46.775Z,98604.82
2023-02-18T03:50:49.109Z,98598.72
2023-02-18T03:51:51.558Z,98597.67
2023-02-18T03:52:54.215Z,98587.19
2023-02-18T03:53:56.467Z,98594.99
2023-02-18T03:54:59.639Z,98589.21
2023-02-18T03:56:02.077Z,98577.09
2023-02-18T03:57:04.211Z,98578.69
2023-02-18T03:58:06.593Z,98568.25
2023-02-18T03:59:09.290Z,98572.44
2023-02-18T04:00:12.952Z,98576.75
2023-02-18T04:01:21.681Z,98569.06
2023-02-18T04:02:24.529Z,98562.47
2023-02-18T04:03:26.975Z,98549.70
2023-02-18T04:04:29.456Z,98550.70
2023-02-18T04:05:31.895Z,98555.54
2023-02-18T04:06:34.349Z,98549.43
2023-02-18T04:07:36.890Z,98544.30
2023-02-18T04:08:39.329Z,98537.34
2023-02-18T04:09:41.764Z,98542.47
2023-02-18T04:10:44.120Z,98528.16
2023-02-18T04:11:47.105Z,98532.54
2023-02-18T04:12:49.642Z,98535.08
2023-02-18T04:13:52.497Z,98534.15
2023-02-18T04:14:54.921Z,98532.29
2023-02-18T04:15:57.663Z,98534.22
2023-02-18T04:17:00.906Z,98522.08
2023-02-18T04:18:03.384Z,98526.98
2023-02-18T04:19:05.848Z,98521.77
2023-02-18T04:20:09.580Z,98528.66
2023-02-18T04:21:12.201Z,98518.66
2023-02-18T04:22:14.562Z,98513.41
2023-02-18T04:23:16.866Z,98518.72
2023-02-18T04:24:19.627Z,98529.65
2023-02-18T04:25:22.153Z,98518.79
2023-02-18T04:26:24.534Z,98516.33
2023-02-18T04:27:26.874Z,98505.95
2023-02-18T04:28:29.242Z,98518.77
2023-02-18T04:29:31.499Z,98513.02
2023-02-18T04:30:34.037Z,98501.94
2023-02-18T04:31:36.508Z,98494.24
2023-02-18T04:32:39.011Z,98489.94
2023-02-18T04:33:41.305Z,98491.52
2023-02-18T04:34:43.804Z,98496.57
2023-02-18T04:35:46.166Z,98497.38
2023-02-18T04:36:49.039Z,98482.88
2023-02-18T04:37:51.426Z,98481.94
2023-02-18T04:38:53.847Z,98470.13
2023-02-18T04:39:56.821Z,98469.25
2023-02-18T04:41:00.033Z,98469.17
2023-02-18T04:42:04.337Z,98472.33
2023-02-18T04:43:06.808Z,98470.56
2023-02-18T04:44:09.159Z,98462.07
2023-02-18T04:45:11.781Z,98463.67
2023-02-18T04:46:14.342Z,98463.73
2023-02-18T04:47:16.704Z,98453.87
2023-02-18T04:48:20.015Z,98452.94
2023-02-18T04:49:22.384Z,98446.18
2023-02-18T04:50:25.029Z,98453.69
2023-02-18T04:51:27.916Z,98451.23
2023-02-18T04:52:30.753Z,98452.11
2023-02-18T04:53:33.223Z,98463.43
2023-02-18T04:54:36.385Z,98454.80
2023-02-18T04:55:39.214Z,98446.42
2023-02-18T04:56:41.440Z,98443.69
2023-02-18T04:57:43.698Z,98450.50
2023-02-18T04:58:46.312Z,98443.69
2023-02-18T04:59:48.665Z,98438.48
2023-02-18T05:00:52.735Z,98439.37
2023-02-18T05:01:55.183Z,98429.99
2023-02-18T05:02:58.520Z,98429.97
2023-02-18T05:04:00.869Z,98424.68
2023-02-18T05:05:03.148Z,98425.48
2023-02-18T05:06:06.380Z,98431.59
2023-02-18T05:07:09.048Z,98423.80
2023-02-18T05:08:12.587Z,98414.42
2023-02-18T05:09:15.371Z,98416.41
2023-02-18T05:10:19.191Z,98410.16
2023-02-18T05:11:21.514Z,98403.02
2023-02-18T05:12:23.864Z,98407.95
2023-02-18T05:13:26.618Z,98417.27
2023-02-18T05:14:28.907Z,98422.31
2023-02-18T05:15:31.145Z,98408.83
2023-02-18T05:16:34.446Z,98407.40
2023-02-18T05:17:36.765Z,98417.73
2023-02-18T05:18:39.387Z,98413.73
2023-02-18T05:19:41.655Z,98393.89
2023-02-18T05:20:45.031Z,98397.97
2023-02-18T05:21:47.369Z,98395.32
2023-02-18T05:22:49.506Z,98397.77
2023-02-18T05:23:51.696Z,98401.20
2023-02-18T05:24:53.917Z,98393.75
2023-02-18T05:25:56.845Z,98392.95
2023-02-18T05:26:59.340Z,98399.16
2023-02-18T05:28:02.536Z,98392.15
2023-02-18T05:29:05.355Z,98393.03
2023-02-18T05:30:08.756Z,98379.77
2023-02-18T05:31:11.253Z,98379.77
2023-02-18T05:32:13.678Z,98382.09
2023-02-18T05:33:16.134Z,98370.76
2023-02-18T05:34:18.653Z,98376.69
2023-02-18T05:35:21.998Z,98374.20
2023-02-18T05:36:24.647Z,98365.62
2023-02-18T05:37:26.993Z,98373.32
2023-02-18T05:38:29.243Z,98373.12
2023-02-18T05:39:31.719Z,98367.91
2023-02-18T05:40:34.016Z,98358.48
2023-02-18T05:41:36.273Z,98360.98
2023-02-18T05:42:38.678Z,98360.17
2023-02-18T05:43:59.474Z,98354.98
2023-02-18T05:45:01.963Z,98355.84
2023-02-18T05:46:06.304Z,98347.28
2023-02-18T05:47:12.112Z,98345.31
2023-02-18T05:48:14.497Z,98359.08
2023-02-18T05:49:16.758Z,98354.30
2023-02-18T05:50:19.592Z,98359.31
2023-02-18T05:51:21.948Z,98350.11
2023-02-18T05:52:24.316Z,98336.43
2023-02-18T05:53:26.588Z,98334.66
2023-02-18T05:54:29.275Z,98338.09
2023-02-18T05:55:33.714Z,98344.04
2023-02-18T05:56:36.398Z,98333.78
2023-02-18T05:57:38.748Z,98329.53
2023-02-18T05:58:41.145Z,98326.77
2023-02-18T05:59:43.376Z,98327.56
2023-02-18T06:00:45.851Z,98330.13
2023-02-18T06:01:49.018Z,98322.38
2023-02-18T06:02:51.410Z,98324.71
2023-02-18T06:03:54.415Z,98313.59
2023-02-18T06:04:59.715Z,98312.72
2023-02-18T06:06:02.205Z,98314.25
2023-02-18T06:07:05.037Z,98309.20
2023-02-18T06:08:07.990Z,98309.41
2023-02-18T06:09:10.431Z,98311.15
2023-02-18T06:10:13.101Z,98316.22
2023-02-18T06:11:15.529Z,98324.80
2023-02-18T06:12:17.759Z,98317.05
2023-02-18T06:13:21.351Z,98305.02
2023-02-18T06:14:23.788Z,98309.14
2023-02-18T06:15:26.651Z,98311.50
2023-02-18T06:16:29.328Z,98299.32
2023-02-18T06:17:31.675Z,98304.66
2023-02-18T06:18:34.828Z,98311.56
2023-02-18T06:19:38.450Z,98295.28
2023-02-18T06:20:41.313Z,98317.37
2023-02-18T06:21:49.070Z,98304.75
2023-02-18T06:22:51.334Z,98300.41
2023-02-18T06:23:53.804Z,98304.66
2023-02-18T06:24:56.073Z,98302.09
2023-02-18T06:25:59.515Z,98301.89
2023-02-18T06:27:02.316Z,98307.63
2023-02-18T06:28:04.872Z,98294.80
2023-02-18T06:29:08.318Z,98295.87
2023-02-18T06:30:11.633Z,98290.67
2023-02-18T06:31:14.128Z,98295.50
2023-02-18T06:32:17.024Z,98299.69
2023-02-18T06:33:19.998Z,98292.88
2023-02-18T06:34:23.416Z,98290.83
2023-02-18T06:35:26.585Z,98291.67
2023-02-18T06:36:33.831Z,98289.88
2023-02-18T06:37:38.057Z,98290.76
2023-02-18T06:38:42.401Z,98299.09
2023-02-18T06:39:46.620Z,98291.33
2023-02-18T06:40:54.392Z,98292.13
2023-02-18T06:41:56.628Z,98300.55
2023-02-18T06:42:59.462Z,98290.12
2023-02-18T06:44:02.719Z,98295.13
2023-02-18T06:45:06.282Z,98288.32
2023-02-18T06:46:14.089Z,98282.30
2023-02-18T06:47:19.987Z,98286.61
2023-02-18T06:48:23.106Z,98291.80
2023-02-18T06:49:27.494Z,98291.91
2023-02-18T06:50:29.915Z,98298.59
2023-02-18T06:51:32.308Z,98292.70
2023-02-18T06:52:34.777Z,98295.27
2023-02-18T06:53:39.280Z,98286.67
2023-02-18T06:54:41.787Z,98276.27
2023-02-18T06:55:45.233Z,98284.64
2023-02-18T06:56:47.825Z,98284.38
2023-02-18T06:57:51.208Z,98278.16
2023-02-18T06:58:54.255Z,98290.11
2023-02-18T06:59:57.138Z,98282.30
2023-02-18T07:00:59.729Z,98283.62
2023-02-18T07:02:02.079Z,98287.70
2023-02-18T07:03:05.665Z,98291.78
2023-02-18T07:04:08.207Z,98273.42
2023-02-18T07:05:11.040Z,98273.72
2023-02-18T07:06:13.716Z,98276.19
2023-02-18T07:07:16.113Z,98279.23
2023-02-18T07:08:19.148Z,98285.02
2023-02-18T07:09:21.466Z,98279.80
2023-02-18T07:10:24.582Z,98274.80
2023-02-18T07:11:27.519Z,98285.20
2023-02-18T07:12:30.114Z,98273.95
2023-02-18T07:13:32.574Z,98282.52
2023-02-18T07:14:34.742Z,98284.30
2023-02-18T07:15:37.394Z,98282.55
2023-02-18T07:16:41.052Z,98277.48
2023-02-18T07:17:43.956Z,98291.19
2023-02-18T07:18:46.668Z,98292.13
2023-02-18T07:19:49.013Z,98287.12
2023-02-18T07:20:52.679Z,98279.41
2023-02-18T07:21:57.420Z,98282.08
2023-02-18T07:23:00.858Z,98283.66
2023-02-18T07:24:03.811Z,98284.41
2023-02-18T07:25:06.910Z,98295.62
2023-02-18T07:26:13.348Z,98293.05
2023-02-18T07:27:15.655Z,98293.69
2023-02-18T07:28:18.019Z,98290.09
2023-02-18T07:29:21.449Z,98282.02
2023-02-18T07:30:25.065Z,98286.02
2023-02-18T07:31:27.609Z,98269.38
2023-02-18T07:32:29.897Z,98268.29
2023-02-18T07:33:32.284Z,98262.74
2023-02-18T07:34:35.662Z,98270.35
2023-02-18T07:35:38.072Z,98276.84
2023-02-18T07:36:40.618Z,98279.11
2023-02-18T07:37:50.426Z,98276.01
2023-02-18T07:38:53.759Z,98273.17
2023-02-18T07:39:56.113Z,98283.98
2023-02-18T07:40:58.920Z,98279.58
2023-02-18T07:42:03.140Z,98282.73
2023-02-18T07:43:07.501Z,98284.22
2023-02-18T07:44:09.947Z,98271.89
2023-02-18T07:45:13.158Z,98283.67
2023-02-18T07:46:17.005Z,98293.08
2023-02-18T07:47:19.392Z,98283.23
2023-02-18T07:48:21.739Z,98320.36
2023-02-18T07:49:24.971Z,98302.20
2023-02-18T07:50:29.208Z,98284.91
2023-02-18T07:51:34.048Z,98312.62
2023-02-18T07:52:36.649Z,98312.62
2023-02-18T07:53:39.281Z,98332.84
2023-02-18T07:54:41.837Z,98294.94
2023-02-18T07:55:50.453Z,98287.17
2023-02-18T07:56:54.243Z,98289.66
2023-02-18T07:58:02.105Z,98292.16
2023-02-18T07:59:04.649Z,98295.44
2023-02-18T08:00:09.376Z,98306.23
2023-02-18T08:01:16.635Z,98293.08
2023-02-18T08:02:21.707Z,98288.98
2023-02-18T08:03:27.488Z,98287.71
2023-02-18T08:04:30.126Z,98284.97
2023-02-18T08:05:32.523Z,98278.22
2023-02-18T08:06:38.165Z,98282.11
2023-02-18T08:07:42.859Z,98283.09
2023-02-18T08:08:45.103Z,98283.09
2023-02-18T08:09:49.347Z,98267.78
2023-02-18T08:10:54.952Z,98264.30
2023-02-18T08:11:57.954Z,98272.66
2023-02-18T08:13:04.071Z,98267.62
2023-02-18T08:14:07.651Z,98277.03
2023-02-18T08:15:10.287Z,98264.84
2023-02-18T08:16:14.127Z,98263.24
2023-02-18T08:17:18.032Z,98281.77
2023-02-18T08:18:22.786Z,98274.25
2023-02-18T08:19:25.122Z,98255.98
2023-02-18T08:20:30.493Z,98263.72
2023-02-18T08:21:32.833Z,98276.95
2023-02-18T08:22:36.122Z,98284.48
2023-02-18T08:23:38.603Z,98248.84
2023-02-18T08:24:40.939Z,98252.93
2023-02-18T08:25:50.044Z,98251.87
2023-02-18T08:27:00.243Z,98265.53
2023-02-18T08:27:56.484Z,98256.12
2023-02-18T08:29:01.155Z,98256.07
2023-02-18T08:30:04.434Z,98255.22
2023-02-18T08:31:07.410Z,98248.94
2023-02-18T08:32:09.976Z,98263.56
2023-02-18T08:33:12.765Z,98284.88
2023-02-18T08:34:15.351Z,98287.25
2023-02-18T08:35:17.919Z,98253.52
2023-02-18T08:36:22.784Z,98244.70
2023-02-18T08:37:25.055Z,98268.55
2023-02-18T08:38:27.414Z,98263.39
2023-02-18T08:39:35.100Z,98272.56
2023-02-18T08:40:37.673Z,98267.10
2023-02-18T08:41:39.799Z,98270.92
2023-02-18T08:42:42.106Z,98283.05
2023-02-18T08:43:45.308Z,98297.79
2023-02-18T08:44:49.157Z,98289.11
2023-02-18T08:45:51.762Z,98281.92
2023-02-18T08:46:54.530Z,98270.61
2023-02-18T08:48:17.855Z,98273.88
2023-02-18T08:49:00.973Z,98258.94
2023-02-18T08:50:05.031Z,98281.23
2023-02-18T08:51:16.946Z,98287.08
2023-02-18T08:52:19.730Z,98275.48
2023-02-18T08:53:22.780Z,98351.89
2023-02-18T08:54:26.114Z,98289.02
2023-02-18T08:55:32.061Z,98278.47
2023-02-18T08:56:34.778Z,98283.69
2023-02-18T08:57:39.050Z,98259.71
2023-02-18T08:58:42.105Z,98273.53
2023-02-18T08:59:48.492Z,98342.73
2023-02-18T09:00:57.571Z,98297.78
2023-02-18T09:02:01.547Z,98270.77
2023-02-18T09:03:06.484Z,98321.37
2023-02-18T09:04:09.410Z,98304.97
2023-02-18T09:05:12.403Z,98290.89
2023-02-18T09:06:16.080Z,98282.41
2023-02-18T09:07:18.563Z,98293.92
2023-02-18T09:08:21.498Z,98299.72
2023-02-18T09:09:24.650Z,98304.20
2023-02-18T09:10:27.181Z,98303.89
2023-02-18T09:11:29.565Z,98324.69
2023-02-18T09:12:32.183Z,98295.23
2023-02-18T09:13:36.457Z,98304.80
2023-02-18T09:14:41.841Z,98277.16
2023-02-18T09:15:44.589Z,98288.08
2023-02-18T09:16:47.366Z,98281.23
2023-02-18T09:17:50.834Z,98291.42
2023-02-18T09:18:53.243Z,98306.75
2023-02-18T09:19:55.810Z,98312.00
2023-02-18T09:21:01.169Z,98281.86
2023-02-18T09:22:03.447Z,98300.91
2023-02-18T09:23:06.939Z,98290.75
2023-02-18T09:24:11.933Z,98282.09
2023-02-18T09:25:14.455Z,98275.57
2023-02-18T09:26:24.488Z,98277.75
2023-02-18T09:27:27.664Z,98278.83
2023-02-18T09:28:31.965Z,98280.20
2023-02-18T09:29:37.703Z,98272.95
2023-02-18T09:30:40.275Z,98288.97
2023-02-18T09:31:43.458Z,98284.34
2023-02-18T09:32:45.957Z,98286.36
2023-02-18T09:33:51.176Z,98280.12
2023-02-18T09:34:53.494Z,98275.12
2023-02-18T09:35:55.821Z,98281.11
2023-02-18T09:36:58.257Z,98271.77
2023-02-18T09:38:00.600Z,98285.73
2023-02-18T09:39:03.528Z,98277.39
2023-02-18T09:40:07.378Z,98285.05
2023-02-18T09:41:16.185Z,98282.25
2023-02-18T09:42:21.999Z,98290.73
2023-02-18T09:43:32.191Z,98269.97
2023-02-18T09:44:44.944Z,98269.67
2023-02-18T09:45:47.328Z,98259.06
2023-02-18T09:47:05.247Z,98296.07
2023-02-18T09:48:09.897Z,98259.66
2023-02-18T09:49:16.841Z,98267.95
2023-02-18T09:50:30.225Z,98253.98
2023-02-18T09:51:32.902Z,98285.41
2023-02-18T09:52:38.040Z,98271.90
2023-02-18T09:53:44.133Z,98275.77
2023-02-18T09:54:49.133Z,98278.20
2023-02-18T09:55:58.882Z,98277.61
2023-02-18T09:57:03.996Z,98282.91
2023-02-18T09:58:21.693Z,98277.01
2023-02-18T09:59:26.197Z,98288.38
2023-02-18T10:00:36.236Z,98287.30
2023-02-18T10:01:43.788Z,98296.72
2023-02-18T10:02:50.258Z,98256.65
2023-02-18T10:03:59.924Z,98260.22
2023-02-18T10:05:04.664Z,98288.67
2023-02-18T10:06:11.700Z,98270.89
2023-02-18T10:07:28.510Z,98286.36
2023-02-18T10:08:47.353Z,98279.27
2023-02-18T10:09:52.203Z,98262.36
2023-02-18T10:10:55.175Z,98271.69
2023-02-18T10:12:13.537Z,98272.89
2023-02-18T10:13:19.040Z,98272.89
2023-02-18T10:14:21.449Z,98269.09
2023-02-18T10:15:27.322Z,98263.80
2023-02-18T10:16:30.504Z,98266.73
2023-02-18T10:17:33.585Z,98272.98
2023-02-18T10:18:40.165Z,98270.69
2023-02-18T10:19:45.677Z,98258.54
2023-02-18T10:20:52.528Z,98259.87
2023-02-18T10:21:55.788Z,98313.60
2023-02-18T10:23:02.422Z,98252.52
2023-02-18T10:25:45.933Z,98274.95
2023-02-18T10:26:50.381Z,98274.20
2023-02-18T10:27:54.261Z,98273.28
2023-02-18T10:28:58.096Z,98252.20
2023-02-18T10:30:16.502Z,98285.44
2023-02-18T10:32:41.329Z,98251.66
2023-02-18T10:33:47.610Z,98276.54
2023-02-18T10:35:19.176Z,98277.52
2023-02-18T10:40:31.472Z,98279.05
2023-02-18T10:41:52.546Z,98312.08
2023-02-18T10:43:13.033Z,98297.79
2023-02-18T10:44:25.054Z,98295.50
2023-02-18T10:45:34.340Z,98290.16
2023-02-18T10:46:49.985Z,98314.97
2023-02-18T10:48:18.794Z,98297.34
2023-02-18T10:49:57.397Z,98303.55
2023-02-18T10:52:20.953Z,98298.25
2023-02-18T10:53:35.472Z,98290.48
2023-02-18T10:55:00.518Z,98290.62
2023-02-18T10:56:04.542Z,98293.27
2023-02-18T10:57:11.565Z,98284.92
2023-02-18T10:58:29.557Z,98287.27
2023-02-18T10:59:33.455Z,98294.05
2023-02-18T11:00:39.899Z,98269.01
2023-02-18T11:01:44.894Z,98292.78
2023-02-18T11:03:08.662Z,98278.77
2023-02-18T11:04:16.517Z,98280.12
2023-02-18T11:05:27.406Z,98265.73
2023-02-18T11:06:33.588Z,98286.92
2023-02-18T11:07:39.538Z,98273.03
2023-02-18T11:08:45.956Z,98277.67
2023-02-18T11:09:52.225Z,98302.34
2023-02-18T11:10:56.091Z,98280.63
2023-02-18T11:12:08.199Z,98296.27
2023-02-18T11:13:10.767Z,98279.88
2023-02-18T11:14:16.708Z,98283.23
2023-02-18T11:15:25.467Z,98272.95
2023-02-18T11:16:41.588Z,98279.69
2023-02-18T11:17:49.157Z,98273.98
2023-02-18T11:18:56.247Z,98262.72
2023-02-18T11:20:02.081Z,98261.58
2023-02-18T11:21:08.554Z,98281.86
2023-02-18T11:22:18.892Z,98285.41
2023-02-18T11:23:22.738Z,98275.77
2023-02-18T11:24:25.218Z,98281.00
2023-02-18T11:25:32.918Z,98248.37
2023-02-18T11:26:38.264Z,98284.81
2023-02-18T11:27:50.049Z,98261.97
2023-02-18T11:28:56.071Z,98265.41
2023-02-18T11:30:03.512Z,98267.14
2023-02-18T11:31:06.437Z,98256.42
2023-02-18T11:32:13.522Z,98260.17
2023-02-18T11:33:23.250Z,98293.86
2023-02-18T11:34:30.195Z,98278.82
2023-02-18T11:35:33.703Z,98280.91
2023-02-18T11:36:38.087Z,98253.81
2023-02-18T11:37:40.881Z,98299.63
2023-02-18T11:38:50.470Z,98266.78
2023-02-18T11:39:55.693Z,98251.96
2023-02-18T11:41:10.591Z,98290.66
2023-02-18T11:42:15.723Z,98270.05
2023-02-18T11:43:21.002Z,98268.45
2023-02-18T11:44:29.892Z,98271.04
2023-02-18T11:45:34.533Z,98257.98
2023-02-18T11:46:37.284Z,98270.48
2023-02-18T11:47:41.162Z,98262.50
2023-02-18T11:48:44.810Z,98269.02
2023-02-18T11:49:59.766Z,98268.51
2023-02-18T11:51:06.802Z,98263.19
2023-02-18T11:52:21.995Z,98250.13
2023-02-18T11:53:34.146Z,98275.80
2023-02-18T11:54:37.018Z,98264.73
2023-02-18T11:55:43.510Z,98276.91
2023-02-18T11:56:53.986Z,98262.80
2023-02-18T11:58:01.320Z,98265.81
2023-02-18T11:59:04.607Z,98282.09
2023-02-18T12:00:17.200Z,98280.77
2023-02-18T12:01:39.483Z,98262.97
2023-02-18T12:02:43.154Z,98264.38
2023-02-18T12:03:59.446Z,98264.64
2023-02-18T12:06:32.698Z,98249.53
2023-02-18T12:07:53.708Z,98267.34
2023-02-18T12:09:02.584Z,98287.55
2023-02-18T12:11:47.105Z,98261.52
2023-02-18T12:13:06.166Z,98260.27
2023-02-18T12:14:16.483Z,98285.05
2023-02-18T12:15:23.584Z,98262.94
2023-02-18T12:16:33.430Z,98310.81
2023-02-18T12:17:56.895Z,98389.64
2023-02-18T12:19:15.992Z,98306.33
2023-02-18T12:20:47.426Z,98307.09
2023-02-18T12:22:02.282Z,98289.13
2023-02-18T12:23:14.702Z,98286.80
2023-02-18T12:24:36.998Z,98289.05
2023-02-18T12:26:07.179Z,98284.06
2023-02-18T12:27:39.385Z,98289.80
2023-02-18T12:28:54.505Z,98276.37
2023-02-18T12:30:22.176Z,98273.39
2023-02-18T12:31:47.089Z,98293.44
2023-02-18T12:33:00.180Z,98270.51
2023-02-18T12:34:15.752Z,98277.44
2023-02-18T12:35:40.556Z,98280.52
2023-02-18T12:37:10.017Z,98278.20
2023-02-18T12:38:22.138Z,98283.21
2023-02-18T12:39:29.446Z,98266.44
2023-02-18T12:40:54.042Z,98277.38
2023-02-18T12:42:19.921Z,98271.56
2023-02-18T12:43:27.098Z,98270.99
2023-02-18T12:44:55.353Z,98272.83
2023-02-18T12:46:19.363Z,98277.22
2023-02-18T12:47:44.613Z,98272.41
2023-02-18T12:48:56.280Z,98269.50
2023-02-18T12:50:13.745Z,98279.34
2023-02-18T12:51:30.464Z,98269.50
2023-02-18T12:52:59.243Z,98281.53
2023-02-18T12:54:24.792Z,98272.03
2023-02-18T12:55:35.864Z,98289.56
2023-02-18T12:56:58.025Z,98265.78
2023-02-18T12:58:13.908Z,98318.33
2023-02-18T12:59:41.604Z,98294.30
2023-02-18T13:01:04.366Z,98317.70
2023-02-18T13:02:34.070Z,98323.52
2023-02-18T13:04:16.395Z,98337.88
2023-02-18T13:05:39.538Z,98344.12
2023-02-18T13:07:06.552Z,98321.16
2023-02-18T13:08:16.071Z,98334.71
2023-02-18T13:09:54.503Z,98342.09
2023-02-18T13:11:03.604Z,98332.84
2023-02-18T13:12:24.884Z,98437.77
2023-02-18T13:13:37.122Z,98382.42
2023-02-18T13:14:56.715Z,98376.40
2023-02-18T13:16:12.010Z,98342.52
2023-02-18T13:17:18.578Z,98384.65